sensor_id;sensor_type;location;lat;lon;timestamp;temperature;humidity
70734;DHT22;58320;48.804;9.252;2023-10-31T00:02:14;10.90;99.90
70734;DHT22;58320;48.804;9.252;2023-10-31T00:04:40;10.90;99.90
70734;DHT22;58320;48.804;9.252;2023-10-31T00:07:06;10.90;99.90
70734;DHT22;58320;48.804;9.252;2023-10-31T00:09:32;10.90;99.90
70734;DHT22;58320;48.804;9.252;2023-10-31T00:11:58;10.90;99.90
70734;DHT22;58320;48.804;9.252;2023-10-31T00:14:24;10.90;99.90
70734;DHT22;58320;48.804;9.252;2023-10-31T00:16:50;10.90;99.90
70734;DHT22;58320;48.804;9.252;2023-10-31T00:19:15;10.90;99.90
70734;DHT22;58320;48.804;9.252;2023-10-31T00:21:41;10.90;99.90
70734;DHT22;58320;48.804;9.252;2023-10-31T00:24:07;10.90;99.90
70734;DHT22;58320;48.804;9.252;2023-10-31T00:26:33;10.90;99.90
70734;DHT22;58320;48.804;9.252;2023-10-31T00:28:58;10.90;99.90
70734;DHT22;58320;48.804;9.252;2023-10-31T00:31:24;10.90;99.90
70734;DHT22;58320;48.804;9.252;2023-10-31T00:33:50;10.90;99.90
70734;DHT22;58320;48.804;9.252;2023-10-31T00:36:15;10.90;99.90
70734;DHT22;58320;48.804;9.252;2023-10-31T00:38:41;10.80;99.90
70734;DHT22;58320;48.804;9.252;2023-10-31T00:41:07;10.80;99.90
70734;DHT22;58320;48.804;9.252;2023-10-31T00:43:32;10.90;99.90
70734;DHT22;58320;48.804;9.252;2023-10-31T00:45:58;10.80;99.90
70734;DHT22;58320;48.804;9.252;2023-10-31T00:48:24;10.80;99.90
70734;DHT22;58320;48.804;9.252;2023-10-31T00:50:50;10.80;99.90
70734;DHT22;58320;48.804;9.252;2023-10-31T00:53:15;10.80;99.90
70734;DHT22;58320;48.804;9.252;2023-10-31T00:55:42;10.80;99.90
70734;DHT22;58320;48.804;9.252;2023-10-31T00:58:08;10.80;99.90
70734;DHT22;58320;48.804;9.252;2023-10-31T01:00:33;10.80;99.90
70734;DHT22;58320;48.804;9.252;2023-10-31T01:03:00;10.80;99.90
70734;DHT22;58320;48.804;9.252;2023-10-31T01:05:26;10.80;99.90
70734;DHT22;58320;48.804;9.252;2023-10-31T01:07:53;10.80;99.90
70734;DHT22;58320;48.804;9.252;2023-10-31T01:10:20;10.80;99.90
70734;DHT22;58320;48.804;9.252;2023-10-31T01:12:45;10.80;99.90
70734;DHT22;58320;48.804;9.252;2023-10-31T01:15:11;10.80;99.90
70734;DHT22;58320;48.804;9.252;2023-10-31T01:17:37;10.80;99.90
70734;DHT22;58320;48.804;9.252;2023-10-31T01:20:03;10.70;99.90
70734;DHT22;58320;48.804;9.252;2023-10-31T01:22:29;10.60;99.90
70734;DHT22;58320;48.804;9.252;2023-10-31T01:24:55;10.60;99.90
70734;DHT22;58320;48.804;9.252;2023-10-31T01:27:20;10.50;99.90
70734;DHT22;58320;48.804;9.252;2023-10-31T01:29:46;10.40;99.90
70734;DHT22;58320;48.804;9.252;2023-10-31T01:32:12;10.40;99.90
70734;DHT22;58320;48.804;9.252;2023-10-31T01:34:38;10.40;99.90
70734;DHT22;58320;48.804;9.252;2023-10-31T01:37:04;10.40;99.90
70734;DHT22;58320;48.804;9.252;2023-10-31T01:39:29;10.30;99.90
70734;DHT22;58320;48.804;9.252;2023-10-31T01:41:55;10.30;99.90
70734;DHT22;58320;48.804;9.252;2023-10-31T01:44:21;10.20;99.90
70734;DHT22;58320;48.804;9.252;2023-10-31T01:46:47;10.20;99.90
70734;DHT22;58320;48.804;9.252;2023-10-31T01:49:14;10.10;99.90
70734;DHT22;58320;48.804;9.252;2023-10-31T01:51:41;10.10;99.90
70734;DHT22;58320;48.804;9.252;2023-10-31T01:54:08;10.00;99.90
70734;DHT22;58320;48.804;9.252;2023-10-31T01:56:34;10.10;99.90
70734;DHT22;58320;48.804;9.252;2023-10-31T01:59:00;10.10;98.70
70734;DHT22;58320;48.804;9.252;2023-10-31T02:01:26;10.10;97.40
70734;DHT22;58320;48.804;9.252;2023-10-31T02:03:53;10.20;96.90
70734;DHT22;58320;48.804;9.252;2023-10-31T02:06:19;10.20;96.10
70734;DHT22;58320;48.804;9.252;2023-10-31T02:08:47;10.20;96.20
70734;DHT22;58320;48.804;9.252;2023-10-31T02:11:13;10.20;96.20
70734;DHT22;58320;48.804;9.252;2023-10-31T02:13:39;10.20;96.40
70734;DHT22;58320;48.804;9.252;2023-10-31T02:16:05;10.20;96.60
70734;DHT22;58320;48.804;9.252;2023-10-31T02:18:31;10.20;96.60
70734;DHT22;58320;48.804;9.252;2023-10-31T02:20:58;10.20;96.90
70734;DHT22;58320;48.804;9.252;2023-10-31T02:23:24;10.20;96.40
70734;DHT22;58320;48.804;9.252;2023-10-31T02:25:49;10.10;96.10
70734;DHT22;58320;48.804;9.252;2023-10-31T02:28:15;10.10;96.20
70734;DHT22;58320;48.804;9.252;2023-10-31T02:30:41;10.10;96.20
70734;DHT22;58320;48.804;9.252;2023-10-31T02:33:06;10.00;96.10
70734;DHT22;58320;48.804;9.252;2023-10-31T02:35:32;10.00;96.30
70734;DHT22;58320;48.804;9.252;2023-10-31T02:37:58;10.00;96.50
70734;DHT22;58320;48.804;9.252;2023-10-31T02:40:24;9.90;96.70
70734;DHT22;58320;48.804;9.252;2023-10-31T02:42:49;9.90;97.00
70734;DHT22;58320;48.804;9.252;2023-10-31T02:45:15;9.90;97.00
70734;DHT22;58320;48.804;9.252;2023-10-31T02:47:41;9.90;96.70
70734;DHT22;58320;48.804;9.252;2023-10-31T02:50:07;9.90;96.60
70734;DHT22;58320;48.804;9.252;2023-10-31T02:52:33;9.90;96.90
70734;DHT22;58320;48.804;9.252;2023-10-31T02:54:59;9.90;96.80
70734;DHT22;58320;48.804;9.252;2023-10-31T02:57:24;9.90;96.70
70734;DHT22;58320;48.804;9.252;2023-10-31T02:59:50;9.80;97.00
70734;DHT22;58320;48.804;9.252;2023-10-31T03:02:16;9.80;96.90
70734;DHT22;58320;48.804;9.252;2023-10-31T03:04:41;9.70;97.00
70734;DHT22;58320;48.804;9.252;2023-10-31T03:07:07;9.70;97.20
70734;DHT22;58320;48.804;9.252;2023-10-31T03:09:33;9.70;97.40
70734;DHT22;58320;48.804;9.252;2023-10-31T03:11:58;9.70;98.00
70734;DHT22;58320;48.804;9.252;2023-10-31T03:14:24;9.60;98.10
70734;DHT22;58320;48.804;9.252;2023-10-31T03:16:50;9.60;98.00
70734;DHT22;58320;48.804;9.252;2023-10-31T03:19:16;9.60;98.10
70734;DHT22;58320;48.804;9.252;2023-10-31T03:21:42;9.60;98.10
70734;DHT22;58320;48.804;9.252;2023-10-31T03:24:07;9.60;98.30
70734;DHT22;58320;48.804;9.252;2023-10-31T03:26:33;9.60;98.20
70734;DHT22;58320;48.804;9.252;2023-10-31T03:28:59;9.60;98.20
70734;DHT22;58320;48.804;9.252;2023-10-31T03:31:25;9.60;98.30
70734;DHT22;58320;48.804;9.252;2023-10-31T03:33:50;9.60;98.00
70734;DHT22;58320;48.804;9.252;2023-10-31T03:36:17;9.60;97.90
70734;DHT22;58320;48.804;9.252;2023-10-31T03:38:43;9.60;97.70
70734;DHT22;58320;48.804;9.252;2023-10-31T03:41:08;9.60;97.60
70734;DHT22;58320;48.804;9.252;2023-10-31T03:43:34;9.60;97.60
70734;DHT22;58320;48.804;9.252;2023-10-31T03:46:00;9.70;97.60
70734;DHT22;58320;48.804;9.252;2023-10-31T03:48:26;9.60;97.60
70734;DHT22;58320;48.804;9.252;2023-10-31T03:50:52;9.70;97.40
70734;DHT22;58320;48.804;9.252;2023-10-31T03:53:18;9.70;97.00
70734;DHT22;58320;48.804;9.252;2023-10-31T03:55:43;9.70;97.20
70734;DHT22;58320;48.804;9.252;2023-10-31T03:58:09;9.70;97.30
70734;DHT22;58320;48.804;9.252;2023-10-31T04:03:11;9.60;97.40
70734;DHT22;58320;48.804;9.252;2023-10-31T04:05:37;9.60;97.60
70734;DHT22;58320;48.804;9.252;2023-10-31T04:08:03;9.60;97.60
70734;DHT22;58320;48.804;9.252;2023-10-31T04:10:28;9.50;98.00
70734;DHT22;58320;48.804;9.252;2023-10-31T04:12:54;9.50;98.20
70734;DHT22;58320;48.804;9.252;2023-10-31T04:15:20;9.50;98.40
70734;DHT22;58320;48.804;9.252;2023-10-31T04:17:46;9.40;98.70
70734;DHT22;58320;48.804;9.252;2023-10-31T04:20:11;9.40;99.00
70734;DHT22;58320;48.804;9.252;2023-10-31T04:22:37;9.40;99.20
70734;DHT22;58320;48.804;9.252;2023-10-31T04:25:04;9.50;99.10
70734;DHT22;58320;48.804;9.252;2023-10-31T04:27:30;9.50;99.00
70734;DHT22;58320;48.804;9.252;2023-10-31T04:29:56;9.60;98.90
70734;DHT22;58320;48.804;9.252;2023-10-31T04:32:21;9.60;99.00
70734;DHT22;58320;48.804;9.252;2023-10-31T04:34:47;9.60;99.00
70734;DHT22;58320;48.804;9.252;2023-10-31T04:37:13;9.60;98.70
70734;DHT22;58320;48.804;9.252;2023-10-31T04:39:38;9.60;98.70
70734;DHT22;58320;48.804;9.252;2023-10-31T04:42:04;9.60;98.80
70734;DHT22;58320;48.804;9.252;2023-10-31T04:44:30;9.60;99.30
70734;DHT22;58320;48.804;9.252;2023-10-31T04:46:55;9.60;99.20
70734;DHT22;58320;48.804;9.252;2023-10-31T04:49:21;9.60;99.10
70734;DHT22;58320;48.804;9.252;2023-10-31T04:51:48;9.50;99.20
70734;DHT22;58320;48.804;9.252;2023-10-31T04:54:14;9.60;99.00
70734;DHT22;58320;48.804;9.252;2023-10-31T04:56:39;9.50;97.70
70734;DHT22;58320;48.804;9.252;2023-10-31T04:59:05;9.50;96.70
70734;DHT22;58320;48.804;9.252;2023-10-31T05:01:31;9.50;97.40
70734;DHT22;58320;48.804;9.252;2023-10-31T05:03:56;9.50;97.80
70734;DHT22;58320;48.804;9.252;2023-10-31T05:06:22;9.50;98.20
70734;DHT22;58320;48.804;9.252;2023-10-31T05:08:49;9.40;98.20
70734;DHT22;58320;48.804;9.252;2023-10-31T05:11:17;9.40;98.70
70734;DHT22;58320;48.804;9.252;2023-10-31T05:13:47;9.40;98.70
70734;DHT22;58320;48.804;9.252;2023-10-31T05:16:13;9.30;98.80
70734;DHT22;58320;48.804;9.252;2023-10-31T05:18:39;9.30;98.80
70734;DHT22;58320;48.804;9.252;2023-10-31T05:21:05;9.30;98.80
70734;DHT22;58320;48.804;9.252;2023-10-31T05:23:31;9.30;98.80
70734;DHT22;58320;48.804;9.252;2023-10-31T05:25:57;9.30;98.90
70734;DHT22;58320;48.804;9.252;2023-10-31T05:28:23;9.20;99.00
70734;DHT22;58320;48.804;9.252;2023-10-31T05:30:49;9.20;98.90
70734;DHT22;58320;48.804;9.252;2023-10-31T05:33:15;9.20;98.90
70734;DHT22;58320;48.804;9.252;2023-10-31T05:35:41;9.20;98.80
70734;DHT22;58320;48.804;9.252;2023-10-31T05:38:08;9.20;98.80
70734;DHT22;58320;48.804;9.252;2023-10-31T05:40:33;9.20;98.40
70734;DHT22;58320;48.804;9.252;2023-10-31T05:43:01;9.20;98.00
70734;DHT22;58320;48.804;9.252;2023-10-31T05:45:30;9.20;97.70
70734;DHT22;58320;48.804;9.252;2023-10-31T05:47:56;9.20;97.30
70734;DHT22;58320;48.804;9.252;2023-10-31T05:50:22;9.20;97.00
70734;DHT22;58320;48.804;9.252;2023-10-31T05:52:48;9.20;96.70
70734;DHT22;58320;48.804;9.252;2023-10-31T05:55:13;9.20;97.40
70734;DHT22;58320;48.804;9.252;2023-10-31T05:57:39;9.20;97.30
70734;DHT22;58320;48.804;9.252;2023-10-31T06:00:06;9.10;96.60
70734;DHT22;58320;48.804;9.252;2023-10-31T06:02:32;9.10;96.90
70734;DHT22;58320;48.804;9.252;2023-10-31T06:04:58;9.10;97.10
70734;DHT22;58320;48.804;9.252;2023-10-31T06:07:24;9.10;96.30
70734;DHT22;58320;48.804;9.252;2023-10-31T06:09:50;9.20;94.50
70734;DHT22;58320;48.804;9.252;2023-10-31T06:12:15;9.20;94.60
70734;DHT22;58320;48.804;9.252;2023-10-31T06:14:41;9.20;93.90
70734;DHT22;58320;48.804;9.252;2023-10-31T06:17:07;9.20;93.50
70734;DHT22;58320;48.804;9.252;2023-10-31T06:19:36;9.20;92.80
70734;DHT22;58320;48.804;9.252;2023-10-31T06:22:02;9.20;93.00
70734;DHT22;58320;48.804;9.252;2023-10-31T06:24:28;9.20;92.70
70734;DHT22;58320;48.804;9.252;2023-10-31T06:26:54;9.30;91.90
70734;DHT22;58320;48.804;9.252;2023-10-31T06:29:20;9.30;91.40
70734;DHT22;58320;48.804;9.252;2023-10-31T06:31:45;9.30;90.60
70734;DHT22;58320;48.804;9.252;2023-10-31T06:34:11;9.40;90.60
70734;DHT22;58320;48.804;9.252;2023-10-31T06:36:37;9.40;90.20
70734;DHT22;58320;48.804;9.252;2023-10-31T06:39:02;9.50;90.20
70734;DHT22;58320;48.804;9.252;2023-10-31T06:41:28;9.50;90.00
70734;DHT22;58320;48.804;9.252;2023-10-31T06:43:54;9.60;90.40
70734;DHT22;58320;48.804;9.252;2023-10-31T06:46:20;9.60;90.00
70734;DHT22;58320;48.804;9.252;2023-10-31T06:48:45;9.70;89.30
70734;DHT22;58320;48.804;9.252;2023-10-31T06:51:11;9.70;89.00
70734;DHT22;58320;48.804;9.252;2023-10-31T06:53:37;9.70;87.60
70734;DHT22;58320;48.804;9.252;2023-10-31T06:56:02;9.80;87.80
70734;DHT22;58320;48.804;9.252;2023-10-31T06:58:28;9.80;88.70
70734;DHT22;58320;48.804;9.252;2023-10-31T07:00:54;9.80;88.80
70734;DHT22;58320;48.804;9.252;2023-10-31T07:03:20;9.80;88.10
70734;DHT22;58320;48.804;9.252;2023-10-31T07:05:46;9.80;88.20
70734;DHT22;58320;48.804;9.252;2023-10-31T07:08:13;9.90;89.20
70734;DHT22;58320;48.804;9.252;2023-10-31T07:10:39;9.90;89.20
70734;DHT22;58320;48.804;9.252;2023-10-31T07:13:05;9.90;89.50
70734;DHT22;58320;48.804;9.252;2023-10-31T07:15:31;9.90;89.70
70734;DHT22;58320;48.804;9.252;2023-10-31T07:17:56;10.00;88.80
70734;DHT22;58320;48.804;9.252;2023-10-31T07:20:22;10.00;89.30
70734;DHT22;58320;48.804;9.252;2023-10-31T07:22:48;10.10;88.20
70734;DHT22;58320;48.804;9.252;2023-10-31T07:25:14;10.10;87.90
70734;DHT22;58320;48.804;9.252;2023-10-31T07:27:40;10.20;87.90
70734;DHT22;58320;48.804;9.252;2023-10-31T07:30:06;10.20;85.90
70734;DHT22;58320;48.804;9.252;2023-10-31T07:32:32;10.30;85.90
70734;DHT22;58320;48.804;9.252;2023-10-31T07:34:58;10.30;85.40
70734;DHT22;58320;48.804;9.252;2023-10-31T07:37:24;10.40;84.00
70734;DHT22;58320;48.804;9.252;2023-10-31T07:39:49;10.50;83.70
70734;DHT22;58320;48.804;9.252;2023-10-31T07:42:18;10.50;82.40
70734;DHT22;58320;48.804;9.252;2023-10-31T07:44:44;10.60;83.40
70734;DHT22;58320;48.804;9.252;2023-10-31T07:47:09;10.70;82.10
70734;DHT22;58320;48.804;9.252;2023-10-31T07:49:35;10.80;81.60
70734;DHT22;58320;48.804;9.252;2023-10-31T07:52:01;10.80;82.90
70734;DHT22;58320;48.804;9.252;2023-10-31T07:54:27;10.90;81.90
70734;DHT22;58320;48.804;9.252;2023-10-31T07:56:52;10.90;82.20
70734;DHT22;58320;48.804;9.252;2023-10-31T07:59:18;11.00;80.40
70734;DHT22;58320;48.804;9.252;2023-10-31T08:01:44;11.00;79.70
70734;DHT22;58320;48.804;9.252;2023-10-31T08:04:09;11.10;81.40
70734;DHT22;58320;48.804;9.252;2023-10-31T08:06:35;11.10;80.40
70734;DHT22;58320;48.804;9.252;2023-10-31T08:09:01;11.10;79.10
70734;DHT22;58320;48.804;9.252;2023-10-31T08:11:27;11.10;79.50
70734;DHT22;58320;48.804;9.252;2023-10-31T08:13:53;11.20;80.30
70734;DHT22;58320;48.804;9.252;2023-10-31T08:16:19;11.30;78.80
70734;DHT22;58320;48.804;9.252;2023-10-31T08:18:45;11.40;79.20
70734;DHT22;58320;48.804;9.252;2023-10-31T08:21:11;11.40;77.50
70734;DHT22;58320;48.804;9.252;2023-10-31T08:23:37;11.50;78.10
70734;DHT22;58320;48.804;9.252;2023-10-31T08:26:03;11.60;77.20
70734;DHT22;58320;48.804;9.252;2023-10-31T08:28:29;11.60;76.70
70734;DHT22;58320;48.804;9.252;2023-10-31T08:30:56;11.60;77.30
70734;DHT22;58320;48.804;9.252;2023-10-31T08:33:22;11.70;76.10
70734;DHT22;58320;48.804;9.252;2023-10-31T08:35:48;11.80;76.80
70734;DHT22;58320;48.804;9.252;2023-10-31T08:38:14;11.90;76.30
70734;DHT22;58320;48.804;9.252;2023-10-31T08:40:41;11.90;75.30
70734;DHT22;58320;48.804;9.252;2023-10-31T08:43:07;12.00;75.20
70734;DHT22;58320;48.804;9.252;2023-10-31T08:45:33;12.10;75.20
70734;DHT22;58320;48.804;9.252;2023-10-31T08:47:59;12.20;75.40
70734;DHT22;58320;48.804;9.252;2023-10-31T08:50:26;12.30;76.40
70734;DHT22;58320;48.804;9.252;2023-10-31T08:52:51;12.30;75.40
70734;DHT22;58320;48.804;9.252;2023-10-31T08:55:17;12.40;75.70
70734;DHT22;58320;48.804;9.252;2023-10-31T08:57:43;12.50;74.50
70734;DHT22;58320;48.804;9.252;2023-10-31T09:00:09;12.50;75.40
70734;DHT22;58320;48.804;9.252;2023-10-31T09:02:35;12.50;73.40
70734;DHT22;58320;48.804;9.252;2023-10-31T09:05:01;12.60;73.40
70734;DHT22;58320;48.804;9.252;2023-10-31T09:07:27;12.60;73.10
70734;DHT22;58320;48.804;9.252;2023-10-31T09:09:52;12.60;75.30
70734;DHT22;58320;48.804;9.252;2023-10-31T09:12:18;12.80;74.30
70734;DHT22;58320;48.804;9.252;2023-10-31T09:14:44;12.80;73.20
70734;DHT22;58320;48.804;9.252;2023-10-31T09:17:10;12.90;73.10
70734;DHT22;58320;48.804;9.252;2023-10-31T09:19:36;13.10;72.10
70734;DHT22;58320;48.804;9.252;2023-10-31T09:22:01;13.20;70.30
70734;DHT22;58320;48.804;9.252;2023-10-31T09:24:27;13.30;70.00
70734;DHT22;58320;48.804;9.252;2023-10-31T09:26:53;13.10;69.30
70734;DHT22;58320;48.804;9.252;2023-10-31T09:29:18;13.10;70.30
70734;DHT22;58320;48.804;9.252;2023-10-31T09:31:44;13.10;71.10
70734;DHT22;58320;48.804;9.252;2023-10-31T09:34:10;13.30;71.60
70734;DHT22;58320;48.804;9.252;2023-10-31T09:36:36;13.40;70.60
70734;DHT22;58320;48.804;9.252;2023-10-31T09:39:01;13.40;70.70
70734;DHT22;58320;48.804;9.252;2023-10-31T09:41:28;13.50;69.00
70734;DHT22;58320;48.804;9.252;2023-10-31T09:43:54;13.50;69.90
70734;DHT22;58320;48.804;9.252;2023-10-31T09:46:21;13.50;70.40
70734;DHT22;58320;48.804;9.252;2023-10-31T09:48:48;13.50;69.40
70734;DHT22;58320;48.804;9.252;2023-10-31T09:51:15;13.40;68.80
70734;DHT22;58320;48.804;9.252;2023-10-31T09:53:45;13.30;68.70
70734;DHT22;58320;48.804;9.252;2023-10-31T09:56:14;13.30;69.10
70734;DHT22;58320;48.804;9.252;2023-10-31T09:58:40;13.40;69.30
70734;DHT22;58320;48.804;9.252;2023-10-31T10:01:07;13.40;69.60
70734;DHT22;58320;48.804;9.252;2023-10-31T10:03:33;13.50;68.90
70734;DHT22;58320;48.804;9.252;2023-10-31T10:05:58;13.60;67.60
70734;DHT22;58320;48.804;9.252;2023-10-31T10:08:24;13.70;68.00
70734;DHT22;58320;48.804;9.252;2023-10-31T10:10:50;13.70;67.40
70734;DHT22;58320;48.804;9.252;2023-10-31T10:13:23;13.60;67.80
70734;DHT22;58320;48.804;9.252;2023-10-31T10:15:50;13.40;68.80
70734;DHT22;58320;48.804;9.252;2023-10-31T10:21:07;13.00;69.80
70734;DHT22;58320;48.804;9.252;2023-10-31T10:23:33;12.80;71.50
70734;DHT22;58320;48.804;9.252;2023-10-31T10:26:00;12.70;72.00
70734;DHT22;58320;48.804;9.252;2023-10-31T10:28:27;12.50;72.60
70734;DHT22;58320;48.804;9.252;2023-10-31T10:30:55;12.50;72.30
70734;DHT22;58320;48.804;9.252;2023-10-31T10:33:21;12.50;73.10
70734;DHT22;58320;48.804;9.252;2023-10-31T10:35:48;12.50;73.30
70734;DHT22;58320;48.804;9.252;2023-10-31T10:38:18;12.60;72.90
70734;DHT22;58320;48.804;9.252;2023-10-31T10:40:45;12.70;72.80
70734;DHT22;58320;48.804;9.252;2023-10-31T10:43:23;12.80;72.60
70734;DHT22;58320;48.804;9.252;2023-10-31T10:45:54;13.00;72.20
70734;DHT22;58320;48.804;9.252;2023-10-31T10:48:22;13.10;71.30
70734;DHT22;58320;48.804;9.252;2023-10-31T10:50:55;13.10;71.60
70734;DHT22;58320;48.804;9.252;2023-10-31T10:53:24;13.00;72.70
70734;DHT22;58320;48.804;9.252;2023-10-31T10:55:57;12.90;73.70
70734;DHT22;58320;48.804;9.252;2023-10-31T10:59:01;12.70;73.50
70734;DHT22;58320;48.804;9.252;2023-10-31T11:01:30;12.70;73.60
70734;DHT22;58320;48.804;9.252;2023-10-31T11:03:56;12.60;74.40
70734;DHT22;58320;48.804;9.252;2023-10-31T11:06:23;12.60;74.20
70734;DHT22;58320;48.804;9.252;2023-10-31T11:08:49;12.60;74.60
70734;DHT22;58320;48.804;9.252;2023-10-31T11:11:16;12.60;74.30
70734;DHT22;58320;48.804;9.252;2023-10-31T11:13:44;12.70;73.70
70734;DHT22;58320;48.804;9.252;2023-10-31T11:16:15;12.80;73.60
70734;DHT22;58320;48.804;9.252;2023-10-31T11:18:45;13.00;73.10
70734;DHT22;58320;48.804;9.252;2023-10-31T11:21:10;13.10;72.00
70734;DHT22;58320;48.804;9.252;2023-10-31T11:23:36;13.20;71.30
70734;DHT22;58320;48.804;9.252;2023-10-31T11:26:02;13.30;71.70
70734;DHT22;58320;48.804;9.252;2023-10-31T11:28:28;13.30;72.20
70734;DHT22;58320;48.804;9.252;2023-10-31T11:30:57;13.40;72.00
70734;DHT22;58320;48.804;9.252;2023-10-31T11:33:26;13.30;72.70
70734;DHT22;58320;48.804;9.252;2023-10-31T11:36:00;13.40;71.50
70734;DHT22;58320;48.804;9.252;2023-10-31T11:38:35;13.50;71.90
70734;DHT22;58320;48.804;9.252;2023-10-31T11:41:03;13.70;70.60
70734;DHT22;58320;48.804;9.252;2023-10-31T11:46:04;13.70;71.10
70734;DHT22;58320;48.804;9.252;2023-10-31T11:48:47;13.60;72.10
70734;DHT22;58320;48.804;9.252;2023-10-31T11:51:15;13.60;71.40
70734;DHT22;58320;48.804;9.252;2023-10-31T11:53:43;13.60;71.20
70734;DHT22;58320;48.804;9.252;2023-10-31T11:56:12;13.60;72.20
70734;DHT22;58320;48.804;9.252;2023-10-31T11:58:38;13.50;71.80
70734;DHT22;58320;48.804;9.252;2023-10-31T12:01:05;13.40;72.10
70734;DHT22;58320;48.804;9.252;2023-10-31T12:03:42;13.40;72.80
70734;DHT22;58320;48.804;9.252;2023-10-31T12:06:13;13.50;72.20
70734;DHT22;58320;48.804;9.252;2023-10-31T12:08:41;13.40;72.20
70734;DHT22;58320;48.804;9.252;2023-10-31T12:11:15;13.40;72.30
70734;DHT22;58320;48.804;9.252;2023-10-31T12:13:51;13.40;73.60
70734;DHT22;58320;48.804;9.252;2023-10-31T12:16:24;13.40;74.20
70734;DHT22;58320;48.804;9.252;2023-10-31T12:19:09;13.40;73.90
70734;DHT22;58320;48.804;9.252;2023-10-31T12:24:09;13.30;74.40
70734;DHT22;58320;48.804;9.252;2023-10-31T12:26:36;13.40;75.00
70734;DHT22;58320;48.804;9.252;2023-10-31T12:29:12;13.50;74.80
70734;DHT22;58320;48.804;9.252;2023-10-31T12:31:53;13.60;73.70
70734;DHT22;58320;48.804;9.252;2023-10-31T12:34:21;13.80;73.70
70734;DHT22;58320;48.804;9.252;2023-10-31T12:36:49;14.00;74.00
70734;DHT22;58320;48.804;9.252;2023-10-31T12:39:20;14.10;73.70
70734;DHT22;58320;48.804;9.252;2023-10-31T12:41:47;14.10;73.10
70734;DHT22;58320;48.804;9.252;2023-10-31T12:44:17;14.20;72.40
70734;DHT22;58320;48.804;9.252;2023-10-31T12:46:46;14.30;70.70
70734;DHT22;58320;48.804;9.252;2023-10-31T12:49:13;14.30;69.50
70734;DHT22;58320;48.804;9.252;2023-10-31T12:51:56;14.20;70.70
70734;DHT22;58320;48.804;9.252;2023-10-31T12:54:35;13.90;72.70
70734;DHT22;58320;48.804;9.252;2023-10-31T12:57:06;13.40;74.10
70734;DHT22;58320;48.804;9.252;2023-10-31T12:59:34;13.40;75.10
70734;DHT22;58320;48.804;9.252;2023-10-31T13:02:04;13.30;75.20
70734;DHT22;58320;48.804;9.252;2023-10-31T13:04:32;13.30;76.60
70734;DHT22;58320;48.804;9.252;2023-10-31T13:09:34;13.30;76.20
70734;DHT22;58320;48.804;9.252;2023-10-31T13:12:02;13.00;78.10
70734;DHT22;58320;48.804;9.252;2023-10-31T13:14:29;12.70;79.80
70734;DHT22;58320;48.804;9.252;2023-10-31T13:16:55;12.50;84.30
70734;DHT22;58320;48.804;9.252;2023-10-31T13:19:21;12.60;85.10
70734;DHT22;58320;48.804;9.252;2023-10-31T13:21:47;12.70;83.90
70734;DHT22;58320;48.804;9.252;2023-10-31T13:24:13;12.90;82.10
70734;DHT22;58320;48.804;9.252;2023-10-31T13:26:39;13.00;81.90
70734;DHT22;58320;48.804;9.252;2023-10-31T13:29:05;13.10;79.40
70734;DHT22;58320;48.804;9.252;2023-10-31T13:31:30;13.20;80.60
70734;DHT22;58320;48.804;9.252;2023-10-31T13:33:56;13.20;79.20
70734;DHT22;58320;48.804;9.252;2023-10-31T13:36:22;13.20;78.60
70734;DHT22;58320;48.804;9.252;2023-10-31T13:38:47;13.10;77.80
70734;DHT22;58320;48.804;9.252;2023-10-31T13:41:14;13.10;78.20
70734;DHT22;58320;48.804;9.252;2023-10-31T13:43:40;13.00;79.30
70734;DHT22;58320;48.804;9.252;2023-10-31T13:46:06;12.90;80.30
70734;DHT22;58320;48.804;9.252;2023-10-31T13:48:32;12.90;80.20
70734;DHT22;58320;48.804;9.252;2023-10-31T13:50:58;12.80;79.80
70734;DHT22;58320;48.804;9.252;2023-10-31T13:53:23;12.80;78.90
70734;DHT22;58320;48.804;9.252;2023-10-31T13:55:49;12.80;77.30
70734;DHT22;58320;48.804;9.252;2023-10-31T13:58:15;12.70;77.20
70734;DHT22;58320;48.804;9.252;2023-10-31T14:00:43;12.70;76.30
70734;DHT22;58320;48.804;9.252;2023-10-31T14:03:12;12.60;76.40
70734;DHT22;58320;48.804;9.252;2023-10-31T14:05:38;12.60;77.90
70734;DHT22;58320;48.804;9.252;2023-10-31T14:08:06;12.70;78.30
70734;DHT22;58320;48.804;9.252;2023-10-31T14:10:47;12.80;79.40
70734;DHT22;58320;48.804;9.252;2023-10-31T14:13:16;13.00;79.70
70734;DHT22;58320;48.804;9.252;2023-10-31T14:15:42;13.00;78.80
70734;DHT22;58320;48.804;9.252;2023-10-31T14:18:11;13.00;78.80
70734;DHT22;58320;48.804;9.252;2023-10-31T14:20:41;13.00;78.70
70734;DHT22;58320;48.804;9.252;2023-10-31T14:23:06;13.10;78.40
70734;DHT22;58320;48.804;9.252;2023-10-31T14:25:35;13.10;77.40
70734;DHT22;58320;48.804;9.252;2023-10-31T14:28:03;13.20;76.90
70734;DHT22;58320;48.804;9.252;2023-10-31T14:30:29;13.20;76.00
70734;DHT22;58320;48.804;9.252;2023-10-31T14:32:55;13.10;77.20
70734;DHT22;58320;48.804;9.252;2023-10-31T14:35:21;13.10;77.40
70734;DHT22;58320;48.804;9.252;2023-10-31T14:37:47;13.10;77.10
70734;DHT22;58320;48.804;9.252;2023-10-31T14:40:12;13.10;77.40
70734;DHT22;58320;48.804;9.252;2023-10-31T14:42:38;13.10;77.80
70734;DHT22;58320;48.804;9.252;2023-10-31T14:45:04;13.10;79.10
70734;DHT22;58320;48.804;9.252;2023-10-31T14:47:30;13.00;79.30
70734;DHT22;58320;48.804;9.252;2023-10-31T14:49:56;12.90;79.60
70734;DHT22;58320;48.804;9.252;2023-10-31T14:52:22;12.80;82.80
70734;DHT22;58320;48.804;9.252;2023-10-31T14:54:47;12.70;82.90
70734;DHT22;58320;48.804;9.252;2023-10-31T14:57:14;12.60;84.70
70734;DHT22;58320;48.804;9.252;2023-10-31T14:59:40;12.40;85.00
70734;DHT22;58320;48.804;9.252;2023-10-31T15:02:06;12.20;85.90
70734;DHT22;58320;48.804;9.252;2023-10-31T15:04:32;11.90;88.60
70734;DHT22;58320;48.804;9.252;2023-10-31T15:06:58;11.60;90.70
70734;DHT22;58320;48.804;9.252;2023-10-31T15:09:23;11.40;92.60
70734;DHT22;58320;48.804;9.252;2023-10-31T15:11:49;11.20;93.90
70734;DHT22;58320;48.804;9.252;2023-10-31T15:14:15;11.10;95.40
70734;DHT22;58320;48.804;9.252;2023-10-31T15:16:41;11.10;96.20
70734;DHT22;58320;48.804;9.252;2023-10-31T15:19:07;11.00;96.90
70734;DHT22;58320;48.804;9.252;2023-10-31T15:21:33;10.90;97.90
70734;DHT22;58320;48.804;9.252;2023-10-31T15:23:58;10.90;98.60
70734;DHT22;58320;48.804;9.252;2023-10-31T15:26:24;10.90;99.90
70734;DHT22;58320;48.804;9.252;2023-10-31T15:28:52;10.90;99.90
70734;DHT22;58320;48.804;9.252;2023-10-31T15:31:18;10.80;99.90
70734;DHT22;58320;48.804;9.252;2023-10-31T15:33:43;10.70;99.70
70734;DHT22;58320;48.804;9.252;2023-10-31T15:36:12;10.70;99.90
70734;DHT22;58320;48.804;9.252;2023-10-31T15:38:39;10.60;99.90
70734;DHT22;58320;48.804;9.252;2023-10-31T15:41:05;10.60;99.90
70734;DHT22;58320;48.804;9.252;2023-10-31T15:43:31;10.60;99.90
70734;DHT22;58320;48.804;9.252;2023-10-31T15:45:57;10.60;99.90